createdAt,value
2018-02-01T00:01:49.264Z,3.08
2018-02-01T00:04:21.945Z,3.72
2018-02-01T00:06:53.992Z,6.20
2018-02-01T00:09:30.105Z,5.32
2018-02-01T00:12:04.046Z,5.87
2018-02-01T00:14:37.075Z,4.22
2018-02-01T00:17:12.901Z,4.68
2018-02-01T00:19:45.867Z,3.35
2018-02-01T00:22:21.447Z,6.53
2018-02-01T00:24:57.222Z,5.80
2018-02-01T00:27:30.131Z,7.20
2018-02-01T00:30:02.682Z,3.75
2018-02-01T00:32:36.546Z,5.12
2018-02-01T00:35:08.980Z,6.82
2018-02-01T00:37:40.773Z,4.62
2018-02-01T00:40:12.839Z,4.95
2018-02-01T00:42:44.988Z,4.07
2018-02-01T00:45:17.232Z,4.15
2018-02-01T00:47:50.023Z,3.55
2018-02-01T00:50:21.212Z,4.25
2018-02-01T00:52:55.326Z,4.68
2018-02-01T00:55:28.964Z,5.12
2018-02-01T00:58:01.465Z,4.62
2018-02-01T01:00:36.788Z,2.85
2018-02-01T01:03:08.509Z,5.85
2018-02-01T01:05:42.651Z,4.85
2018-02-01T01:08:14.119Z,6.25
2018-02-01T01:10:46.500Z,3.33
2018-02-01T01:13:22.949Z,4.45
2018-02-01T01:15:55.533Z,5.03
2018-02-01T01:18:30.231Z,4.57
2018-02-01T01:21:04.364Z,6.07
2018-02-01T01:23:40.755Z,4.78
2018-02-01T01:26:12.300Z,4.50
2018-02-01T01:28:44.659Z,8.43
2018-02-01T01:31:18.120Z,10.68
2018-02-01T01:33:50.827Z,8.52
2018-02-01T01:36:22.793Z,7.10
2018-02-01T01:38:55.728Z,6.60
2018-02-01T01:41:28.131Z,9.00
2018-02-01T01:43:59.776Z,6.78
2018-02-01T01:46:32.508Z,8.98
2018-02-01T01:49:04.864Z,5.85
2018-02-01T01:51:38.918Z,6.95
2018-02-01T01:54:11.143Z,8.48
2018-02-01T01:56:43.751Z,6.93
2018-02-01T01:59:16.140Z,7.03
2018-02-01T02:01:48.090Z,7.50
2018-02-01T02:04:20.709Z,9.63
2018-02-01T02:06:54.641Z,11.77
2018-02-01T02:09:27.117Z,10.57
2018-02-01T02:12:02.241Z,9.55
2018-02-01T02:14:36.205Z,11.15
2018-02-01T02:17:09.120Z,6.45
2018-02-01T02:19:41.773Z,9.05
2018-02-01T02:22:15.101Z,9.00
2018-02-01T02:24:49.865Z,5.57
2018-02-01T02:27:23.224Z,11.68
2018-02-01T02:29:56.577Z,7.82
2018-02-01T02:32:28.882Z,7.57
2018-02-01T02:35:01.480Z,7.05
2018-02-01T02:37:35.508Z,5.37
2018-02-01T02:40:07.078Z,9.48
2018-02-01T02:42:39.338Z,8.82
2018-02-01T02:45:11.990Z,7.25
2018-02-01T02:47:46.207Z,8.80
2018-02-01T02:50:18.921Z,6.35
2018-02-01T02:52:51.714Z,4.35
2018-02-01T02:55:23.944Z,6.85
2018-02-01T02:57:56.115Z,5.53
2018-02-01T03:00:28.981Z,5.78
2018-02-01T03:03:01.398Z,5.78
2018-02-01T03:05:35.410Z,6.20
2018-02-01T03:08:08.860Z,5.90
2018-02-01T03:14:15.672Z,4.60
2018-02-01T03:16:50.365Z,6.82
2018-02-01T03:19:23.639Z,8.63
2018-02-01T03:21:58.430Z,7.07
2018-02-01T03:24:32.559Z,5.07
2018-02-01T03:27:04.990Z,5.45
2018-02-01T03:29:38.523Z,9.50
2018-02-01T03:32:11.129Z,4.85
2018-02-01T03:34:47.574Z,6.55
2018-02-01T03:37:19.929Z,5.50
2018-02-01T03:39:54.295Z,5.60
2018-02-01T03:42:27.369Z,5.22
2018-02-01T03:45:00.143Z,7.40
2018-02-01T03:47:33.525Z,4.47
2018-02-01T03:50:06.355Z,7.07
2018-02-01T03:52:42.011Z,7.72
2018-02-01T03:55:15.261Z,8.25
2018-02-01T03:57:48.066Z,6.68
2018-02-01T04:00:21.221Z,4.32
2018-02-01T04:02:54.412Z,6.05
2018-02-01T04:05:27.377Z,7.10
2018-02-01T04:08:00.211Z,5.65
2018-02-01T04:10:32.268Z,8.07
2018-02-01T04:13:06.011Z,6.07
2018-02-01T04:15:38.498Z,6.12
2018-02-01T04:18:12.641Z,6.62
2018-02-01T04:20:44.448Z,4.85
2018-02-01T04:23:17.568Z,7.00
2018-02-01T04:25:48.981Z,7.78
2018-02-01T04:28:23.483Z,9.35
2018-02-01T04:30:57.089Z,7.37
2018-02-01T04:33:30.168Z,5.65
2018-02-01T04:36:03.956Z,7.10
2018-02-01T04:38:37.564Z,5.53
2018-02-01T04:41:10.710Z,6.35
2018-02-01T04:43:43.473Z,8.38
2018-02-01T04:46:16.146Z,6.70
2018-02-01T04:48:49.351Z,5.05
2018-02-01T04:51:20.733Z,6.87
2018-02-01T04:53:52.423Z,7.62
2018-02-01T04:56:28.810Z,7.25
2018-02-01T04:59:00.997Z,8.68
2018-02-01T05:01:37.156Z,5.37
2018-02-01T05:04:09.090Z,7.97
2018-02-01T05:06:43.630Z,7.03
2018-02-01T05:09:16.678Z,6.93
2018-02-01T05:11:51.541Z,7.75
2018-02-01T05:14:27.055Z,5.95
2018-02-01T05:16:59.568Z,6.90
2018-02-01T05:19:31.056Z,6.18
2018-02-01T05:22:03.014Z,8.05
2018-02-01T05:24:36.886Z,5.50
2018-02-01T05:27:09.610Z,12.27
2018-02-01T05:29:40.725Z,7.75
2018-02-01T05:32:15.124Z,5.68
2018-02-01T05:34:48.225Z,7.22
2018-02-01T05:37:20.618Z,6.75
2018-02-01T05:39:52.909Z,9.45
2018-02-01T05:42:26.453Z,7.53
2018-02-01T05:44:58.612Z,6.22
2018-02-01T05:47:33.921Z,11.27
2018-02-01T05:50:07.076Z,8.38
2018-02-01T05:52:39.934Z,5.60
2018-02-01T05:55:13.602Z,9.27
2018-02-01T05:57:48.147Z,9.35
2018-02-01T06:00:21.583Z,5.30
2018-02-01T06:02:54.301Z,3.85
2018-02-01T06:05:27.630Z,6.12
2018-02-01T06:08:05.743Z,7.03
2018-02-01T06:10:37.798Z,6.72
2018-02-01T06:13:10.971Z,9.43
2018-02-01T06:15:43.934Z,9.73
2018-02-01T06:18:16.951Z,11.40
2018-02-01T06:20:49.658Z,10.10
2018-02-01T06:23:23.386Z,6.75
2018-02-01T06:25:56.317Z,10.57
2018-02-01T06:28:29.133Z,6.32
2018-02-01T06:31:01.637Z,8.63
2018-02-01T06:33:35.579Z,6.22
2018-02-01T06:36:09.636Z,11.18
2018-02-01T06:38:43.400Z,13.35
2018-02-01T06:41:18.665Z,8.40
2018-02-01T06:43:53.129Z,9.73
2018-02-01T06:46:28.922Z,6.70
2018-02-01T06:49:02.323Z,5.18
2018-02-01T06:51:36.198Z,9.05
2018-02-01T06:54:09.009Z,7.82
2018-02-01T06:56:40.680Z,10.90
2018-02-01T06:59:17.704Z,9.88
2018-02-01T07:01:52.836Z,10.68
2018-02-01T07:04:25.486Z,5.20
2018-02-01T07:06:57.752Z,8.35
2018-02-01T07:09:34.532Z,8.20
2018-02-01T07:12:10.949Z,7.97
2018-02-01T07:14:44.355Z,6.93
2018-02-01T07:17:22.306Z,7.25
2018-02-01T07:19:59.270Z,7.07
2018-02-01T07:22:32.807Z,7.57
2018-02-01T07:25:06.740Z,7.65
2018-02-01T07:27:39.469Z,7.07
2018-02-01T07:30:12.745Z,6.47
2018-02-01T07:32:47.440Z,6.10
2018-02-01T07:35:20.845Z,6.18
2018-02-01T07:37:53.646Z,10.20
2018-02-01T07:40:41.948Z,5.87
2018-02-01T07:43:16.022Z,7.03
2018-02-01T07:45:50.799Z,7.62
2018-02-01T07:48:24.330Z,7.57
2018-02-01T07:50:58.811Z,9.50
2018-02-01T07:53:35.944Z,9.38
2018-02-01T07:56:09.635Z,7.25
2018-02-01T07:58:50.434Z,7.05
2018-02-01T08:01:27.576Z,5.45
2018-02-01T08:04:03.865Z,6.45
2018-02-01T08:06:41.405Z,6.78
2018-02-01T08:09:17.031Z,5.00
2018-02-01T08:11:50.653Z,6.55
2018-02-01T08:14:26.054Z,7.05
2018-02-01T08:17:02.511Z,13.98
2018-02-01T08:19:39.482Z,4.55
2018-02-01T08:22:13.611Z,5.47
2018-02-01T08:24:46.873Z,7.00
2018-02-01T08:27:20.407Z,5.40
2018-02-01T08:29:54.508Z,8.02
2018-02-01T08:32:29.059Z,6.62
2018-02-01T08:35:11.862Z,3.65
2018-02-01T08:37:47.019Z,7.32
2018-02-01T08:43:00.217Z,3.75
2018-02-01T08:45:39.906Z,7.10
2018-02-01T08:48:12.633Z,3.85
2018-02-01T08:50:48.656Z,9.68
2018-02-01T08:53:23.063Z,6.80
2018-02-01T08:55:59.119Z,6.40
2018-02-01T08:58:33.869Z,9.98
2018-02-01T09:01:09.221Z,5.53
2018-02-01T09:03:42.084Z,4.90
2018-02-01T09:06:18.783Z,4.97
2018-02-01T09:11:41.093Z,5.15
2018-02-01T09:14:20.291Z,8.13
2018-02-01T09:16:55.755Z,4.40
2018-02-01T09:19:37.528Z,4.93
2018-02-01T09:22:11.264Z,4.70
2018-02-01T09:24:43.932Z,5.62
2018-02-01T09:27:18.169Z,6.72
2018-02-01T09:29:51.012Z,7.35
2018-02-01T09:32:24.960Z,10.18
2018-02-01T09:34:57.092Z,8.60
2018-02-01T09:37:28.716Z,5.22
2018-02-01T09:40:00.554Z,8.65
2018-02-01T09:42:34.629Z,9.15
2018-02-01T09:45:08.272Z,5.47
2018-02-01T09:47:41.572Z,4.05
2018-02-01T09:50:13.382Z,5.03
2018-02-01T09:52:51.202Z,5.40
2018-02-01T09:55:23.375Z,5.20
2018-02-01T09:57:56.759Z,3.90
2018-02-01T10:00:29.739Z,2.65
2018-02-01T10:03:03.018Z,4.43
2018-02-01T10:05:36.211Z,3.33
2018-02-01T10:08:10.628Z,5.70
2018-02-01T10:10:43.803Z,5.70
2018-02-01T10:13:17.161Z,6.57
2018-02-01T10:15:52.362Z,4.80
2018-02-01T10:18:28.143Z,5.85
2018-02-01T10:21:04.589Z,3.67
2018-02-01T10:23:42.460Z,8.75
2018-02-01T10:26:17.448Z,11.12
2018-02-01T10:31:44.027Z,6.10
2018-02-01T10:34:19.163Z,5.50
2018-02-01T10:36:50.943Z,7.87
2018-02-01T10:39:22.503Z,3.67
2018-02-01T10:41:56.546Z,8.02
2018-02-01T10:44:30.773Z,9.50
2018-02-01T10:47:03.801Z,7.30
2018-02-01T10:49:37.378Z,4.20
2018-02-01T10:52:09.742Z,7.40
2018-02-01T10:54:43.102Z,5.00
2018-02-01T10:57:17.670Z,5.28
2018-02-01T10:59:49.425Z,6.33
2018-02-01T11:02:23.179Z,7.67
2018-02-01T11:04:55.478Z,6.83
2018-02-01T11:07:31.764Z,6.27
2018-02-01T11:10:05.855Z,4.77
2018-02-01T11:12:41.715Z,7.00
2018-02-01T11:15:18.108Z,6.73
2018-02-01T11:17:53.310Z,5.83
2018-02-01T11:20:29.880Z,2.93
2018-02-01T11:23:08.457Z,7.70
2018-02-01T11:25:42.910Z,6.33
2018-02-01T11:28:22.006Z,4.72
2018-02-01T11:30:54.751Z,9.07
2018-02-01T11:33:28.427Z,9.13
2018-02-01T11:36:02.057Z,5.17
2018-02-01T11:38:46.707Z,5.50
2018-02-01T11:41:19.075Z,7.00
2018-02-01T11:43:50.422Z,4.93
2018-02-01T11:46:24.065Z,5.53
2018-02-01T11:48:59.540Z,4.67
2018-02-01T11:51:35.881Z,6.73
2018-02-01T11:54:10.477Z,8.00
2018-02-01T11:56:43.611Z,5.83
2018-02-01T11:59:16.053Z,5.80
2018-02-01T12:01:47.982Z,10.30
2018-02-01T12:04:26.851Z,4.00
2018-02-01T12:06:58.621Z,6.67
2018-02-01T12:09:38.211Z,4.13
2018-02-01T12:12:10.992Z,4.13
2018-02-01T12:15:20.880Z,10.40
2018-02-01T12:17:56.252Z,5.50
2018-02-01T12:20:31.486Z,5.27
2018-02-01T12:23:06.325Z,6.27
2018-02-01T12:25:42.291Z,6.27
2018-02-01T12:28:17.247Z,6.57
2018-02-01T12:30:52.835Z,3.93
2018-02-01T12:33:33.730Z,5.23
2018-02-01T12:36:05.720Z,9.70
2018-02-01T12:38:38.071Z,5.10
2018-02-01T12:41:15.435Z,8.70
2018-02-01T12:43:56.713Z,10.07
2018-02-01T12:46:31.649Z,5.00
2018-02-01T12:49:03.458Z,5.97
2018-02-01T12:51:37.920Z,3.53
2018-02-01T12:54:14.495Z,7.83
2018-02-01T12:56:48.086Z,3.97
2018-02-01T12:59:20.558Z,7.30
2018-02-01T13:02:02.055Z,3.30
2018-02-01T13:04:36.846Z,4.30
2018-02-01T13:07:20.509Z,4.80
2018-02-01T13:09:58.519Z,4.23
2018-02-01T13:12:36.551Z,4.73
2018-02-01T13:15:09.912Z,4.63
2018-02-01T13:17:42.754Z,3.00
2018-02-01T13:20:16.111Z,4.43
2018-02-01T13:22:50.426Z,4.33
2018-02-01T13:25:25.312Z,3.47
2018-02-01T13:28:02.419Z,2.00
2018-02-01T13:30:36.156Z,1.77
2018-02-01T13:33:08.454Z,3.40
2018-02-01T13:35:40.928Z,6.00
2018-02-01T13:38:14.385Z,3.73
2018-02-01T13:40:47.608Z,4.60
2018-02-01T13:43:21.806Z,3.33
2018-02-01T13:45:55.429Z,2.57
2018-02-01T13:48:29.830Z,3.37
2018-02-01T13:51:02.836Z,1.50
2018-02-01T13:53:36.712Z,1.77
2018-02-01T13:56:11.865Z,2.70
2018-02-01T13:58:48.890Z,1.40
2018-02-01T14:01:21.249Z,4.13
2018-02-01T14:03:56.979Z,4.30
2018-02-01T14:06:29.978Z,2.27
2018-02-01T14:09:04.075Z,2.30
2018-02-01T14:11:35.686Z,2.10
2018-02-01T14:14:09.328Z,3.00
2018-02-01T14:16:41.698Z,3.50
2018-02-01T14:19:14.966Z,3.93
2018-02-01T14:21:49.989Z,3.43
2018-02-01T14:24:21.614Z,2.97
2018-02-01T14:26:54.299Z,5.07
2018-02-01T14:29:27.873Z,7.00
2018-02-01T14:32:03.873Z,6.47
2018-02-01T14:34:38.462Z,3.53
2018-02-01T14:37:12.077Z,2.43
2018-02-01T14:39:44.082Z,3.53
2018-02-01T14:42:15.946Z,2.33
2018-02-01T14:44:51.385Z,2.07
2018-02-01T14:47:24.154Z,2.07
2018-02-01T14:49:57.738Z,2.13
2018-02-01T14:52:30.486Z,2.77
2018-02-01T14:55:04.200Z,4.13
2018-02-01T14:57:37.086Z,2.77
2018-02-01T15:00:11.197Z,1.30
2018-02-01T15:02:44.316Z,3.03
2018-02-01T15:05:20.445Z,1.40
2018-02-01T15:07:52.125Z,1.80
2018-02-01T15:10:25.195Z,2.40
2018-02-01T15:12:56.715Z,2.67
2018-02-01T15:15:29.114Z,1.50
2018-02-01T15:18:01.632Z,2.03
2018-02-01T15:20:36.595Z,1.63
2018-02-01T15:23:10.300Z,1.20
2018-02-01T15:25:41.896Z,2.00
2018-02-01T15:28:15.418Z,2.17
2018-02-01T15:30:49.192Z,1.60
2018-02-01T15:33:21.030Z,1.40
2018-02-01T15:36:02.526Z,1.37
2018-02-01T15:38:35.145Z,2.40
2018-02-01T15:41:07.624Z,1.95
2018-02-01T15:43:41.819Z,2.15
2018-02-01T15:46:16.289Z,4.62
2018-02-01T15:48:53.124Z,3.37
2018-02-01T15:51:26.073Z,2.05
2018-02-01T15:54:00.481Z,6.10
2018-02-01T15:56:36.468Z,5.20
2018-02-01T15:59:09.106Z,3.65
2018-02-01T16:01:45.532Z,4.03
2018-02-01T16:04:22.005Z,5.65
2018-02-01T16:06:55.870Z,2.55
2018-02-01T16:09:28.357Z,3.15
2018-02-01T16:12:01.995Z,3.22
2018-02-01T16:14:34.696Z,5.40
2018-02-01T16:17:10.303Z,5.07
2018-02-01T16:19:46.356Z,3.08
2018-02-01T16:22:21.498Z,4.10
2018-02-01T16:24:57.114Z,3.20
2018-02-01T16:27:34.568Z,3.78
2018-02-01T16:30:09.515Z,3.75
2018-02-01T16:32:43.879Z,4.50
2018-02-01T16:37:56.624Z,3.53
2018-02-01T16:40:31.452Z,5.57
2018-02-01T16:43:04.721Z,8.57
2018-02-01T16:45:36.831Z,5.75
2018-02-01T16:48:10.766Z,4.22
2018-02-01T16:50:44.597Z,4.15
2018-02-01T16:53:17.914Z,4.05
2018-02-01T16:55:52.422Z,6.25
2018-02-01T16:58:24.637Z,5.35
2018-02-01T17:01:03.273Z,4.72
2018-02-01T17:03:37.408Z,4.57
2018-02-01T17:06:10.213Z,5.60
2018-02-01T17:08:41.548Z,8.38
2018-02-01T17:11:14.903Z,5.15
2018-02-01T17:13:46.590Z,4.20
2018-02-01T17:16:18.865Z,3.80
2018-02-01T17:18:56.632Z,3.72
2018-02-01T17:21:29.867Z,4.57
2018-02-01T17:24:02.845Z,2.70
2018-02-01T17:26:34.079Z,4.00
2018-02-01T17:29:06.223Z,4.75
2018-02-01T17:31:39.341Z,7.10
2018-02-01T17:34:12.508Z,6.68
2018-02-01T17:36:45.736Z,7.18
2018-02-01T17:39:20.636Z,4.10
2018-02-01T17:41:53.508Z,6.03
2018-02-01T17:44:25.853Z,8.40
2018-02-01T17:46:58.568Z,6.70
2018-02-01T17:49:30.457Z,7.55
2018-02-01T17:52:01.486Z,5.65
2018-02-01T17:54:34.755Z,3.85
2018-02-01T17:57:06.907Z,39.05
2018-02-01T17:59:38.782Z,10.05
2018-02-01T18:02:11.953Z,8.40
2018-02-01T18:04:45.601Z,11.75
2018-02-01T18:07:18.557Z,9.48
2018-02-01T18:09:50.753Z,7.12
2018-02-01T18:12:23.432Z,4.97
2018-02-01T18:14:55.821Z,4.82
2018-02-01T18:17:30.569Z,7.53
2018-02-01T18:20:03.026Z,5.50
2018-02-01T18:22:36.046Z,8.55
2018-02-01T18:25:08.201Z,5.22
2018-02-01T18:27:40.938Z,7.25
2018-02-01T18:30:13.317Z,5.97
2018-02-01T18:32:45.118Z,7.55
2018-02-01T18:35:18.138Z,6.65
2018-02-01T18:37:52.159Z,9.38
2018-02-01T18:40:24.098Z,8.73
2018-02-01T18:42:58.648Z,23.85
2018-02-01T18:45:31.670Z,10.32
2018-02-01T18:48:05.105Z,10.20
2018-02-01T18:50:40.167Z,10.27
2018-02-01T18:53:12.895Z,9.65
2018-02-01T18:55:45.161Z,11.25
2018-02-01T18:58:16.959Z,13.73
2018-02-01T19:00:51.004Z,13.30
2018-02-01T19:03:22.864Z,12.32
2018-02-01T19:05:56.094Z,14.20
2018-02-01T19:08:29.007Z,11.63
2018-02-01T19:11:01.884Z,12.20
2018-02-01T19:13:35.877Z,8.40
2018-02-01T19:16:08.550Z,9.63
2018-02-01T19:18:43.054Z,12.18
2018-02-01T19:21:16.135Z,8.00
2018-02-01T19:23:50.893Z,8.52
2018-02-01T19:26:22.887Z,7.30
2018-02-01T19:28:56.620Z,10.18
2018-02-01T19:31:30.314Z,10.90
2018-02-01T19:34:04.529Z,7.95
2018-02-01T19:36:38.610Z,9.27
2018-02-01T19:39:13.655Z,13.65
2018-02-01T19:41:46.922Z,13.13
2018-02-01T19:44:21.097Z,8.25
2018-02-01T19:46:55.136Z,9.93
2018-02-01T19:49:28.267Z,12.10
2018-02-01T19:52:01.786Z,11.00
2018-02-01T19:54:34.961Z,9.20
2018-02-01T19:57:07.795Z,11.15
2018-02-01T19:59:41.128Z,9.60
2018-02-01T20:02:15.220Z,13.07
2018-02-01T20:04:49.356Z,14.60
2018-02-01T20:07:22.536Z,13.70
2018-02-01T20:09:54.515Z,14.00
2018-02-01T20:12:27.585Z,15.55
2018-02-01T20:15:05.831Z,10.85
2018-02-01T20:17:38.130Z,11.35
2018-02-01T20:20:11.536Z,11.45
2018-02-01T20:22:44.237Z,13.20
2018-02-01T20:25:17.101Z,11.00
2018-02-01T20:27:49.447Z,9.18
2018-02-01T20:30:23.389Z,9.02
2018-02-01T20:32:58.383Z,9.57
2018-02-01T20:35:30.623Z,11.43
2018-02-01T20:38:04.856Z,9.98
2018-02-01T20:40:37.150Z,11.35
2018-02-01T20:43:10.610Z,10.35
2018-02-01T20:45:45.135Z,11.43
2018-02-01T20:48:19.899Z,11.40
2018-02-01T20:50:52.479Z,13.30
2018-02-01T20:53:24.512Z,11.02
2018-02-01T20:55:58.473Z,14.43
2018-02-01T20:58:32.482Z,10.68
2018-02-01T21:01:08.908Z,10.07
2018-02-01T21:03:41.508Z,10.55
2018-02-01T21:06:15.751Z,11.80
2018-02-01T21:08:49.570Z,11.25
2018-02-01T21:11:25.435Z,11.50
2018-02-01T21:13:57.767Z,11.60
2018-02-01T21:16:31.380Z,12.93
2018-02-01T21:19:04.020Z,11.98
2018-02-01T21:21:38.519Z,10.20
2018-02-01T21:24:12.702Z,12.77
2018-02-01T21:26:45.615Z,11.30
2018-02-01T21:29:17.679Z,11.32
2018-02-01T21:31:50.862Z,12.10
2018-02-01T21:34:23.715Z,11.55
2018-02-01T21:36:56.716Z,11.52
2018-02-01T21:39:28.303Z,10.90
2018-02-01T21:42:01.202Z,10.55
2018-02-01T21:44:36.600Z,11.73
2018-02-01T21:47:10.723Z,11.30
2018-02-01T21:49:42.623Z,12.40
2018-02-01T21:52:16.415Z,13.45
2018-02-01T21:54:49.097Z,12.90
2018-02-01T21:57:23.494Z,12.35
2018-02-01T21:59:54.940Z,16.00
2018-02-01T22:02:27.269Z,13.27
2018-02-01T22:04:58.811Z,14.98
2018-02-01T22:07:31.444Z,13.75
2018-02-01T22:10:04.336Z,12.00
2018-02-01T22:12:36.747Z,12.15
2018-02-01T22:15:10.307Z,13.00
2018-02-01T22:17:42.057Z,9.63
2018-02-01T22:20:14.852Z,12.52
2018-02-01T22:22:47.944Z,12.05
2018-02-01T22:25:21.214Z,10.30
2018-02-01T22:27:53.981Z,11.45
2018-02-01T22:30:26.348Z,9.77
2018-02-01T22:32:59.108Z,12.18
2018-02-01T22:35:33.740Z,11.75
2018-02-01T22:38:05.488Z,11.75
2018-02-01T22:40:39.091Z,9.50
2018-02-01T22:43:11.483Z,9.45
2018-02-01T22:45:44.568Z,10.38
2018-02-01T22:48:16.732Z,11.80
2018-02-01T22:50:50.046Z,8.13
2018-02-01T22:53:22.020Z,9.77
2018-02-01T22:55:54.347Z,10.30
2018-02-01T22:58:25.812Z,8.65
2018-02-01T23:00:57.860Z,8.15
2018-02-01T23:03:30.097Z,11.65
2018-02-01T23:06:03.050Z,10.50
2018-02-01T23:08:35.949Z,10.30
2018-02-01T23:11:09.044Z,11.38
2018-02-01T23:13:41.330Z,7.87
2018-02-01T23:16:14.470Z,10.43
2018-02-01T23:18:46.259Z,8.00
2018-02-01T23:21:17.830Z,8.48
2018-02-01T23:23:50.310Z,8.85
2018-02-01T23:26:22.879Z,9.35
2018-02-01T23:28:56.543Z,10.77
2018-02-01T23:31:28.129Z,11.40
2018-02-01T23:34:00.393Z,9.35
2018-02-01T23:36:32.881Z,9.38
2018-02-01T23:39:05.830Z,12.40
2018-02-01T23:41:37.754Z,11.00
2018-02-01T23:44:09.692Z,9.07
2018-02-01T23:46:42.245Z,7.55
2018-02-01T23:49:15.303Z,10.23
2018-02-01T23:51:46.625Z,10.57
2018-02-01T23:54:18.355Z,9.35
2018-02-01T23:56:51.806Z,7.87
2018-02-01T23:59:24.272Z,7.72
